sensor_id;sensor_type;location;lat;lon;timestamp;noise_LAeq;noise_LA_min;noise_LA_max;noise_LA01;noise_LA95
64079;Laerm;51042;49.696;10.808;2023-06-22T00:00:19;45.63;42.42;51.65;;
64079;Laerm;51042;49.696;10.808;2023-06-22T00:02:46;58.84;42.66;76.90;;
64079;Laerm;51042;49.696;10.808;2023-06-22T00:05:11;52.65;42.99;71.66;;
64079;Laerm;51042;49.696;10.808;2023-06-22T00:07:37;45.81;42.39;49.41;;
64079;Laerm;51042;49.696;10.808;2023-06-22T00:10:02;45.85;42.43;49.29;;
64079;Laerm;51042;49.696;10.808;2023-06-22T00:12:27;46.04;43.20;50.10;;
64079;Laerm;51042;49.696;10.808;2023-06-22T00:14:53;45.94;43.05;49.77;;
64079;Laerm;51042;49.696;10.808;2023-06-22T00:17:18;45.96;42.52;49.50;;
64079;Laerm;51042;49.696;10.808;2023-06-22T00:19:46;46.22;42.77;59.22;;
64079;Laerm;51042;49.696;10.808;2023-06-22T00:22:12;46.22;42.72;58.28;;
64079;Laerm;51042;49.696;10.808;2023-06-22T00:24:37;45.95;42.76;50.49;;
64079;Laerm;51042;49.696;10.808;2023-06-22T00:27:03;46.15;42.67;49.55;;
64079;Laerm;51042;49.696;10.808;2023-06-22T00:29:30;49.98;43.07;63.57;;
64079;Laerm;51042;49.696;10.808;2023-06-22T00:31:55;46.36;43.26;50.10;;
64079;Laerm;51042;49.696;10.808;2023-06-22T00:34:20;46.19;43.00;49.90;;
64079;Laerm;51042;49.696;10.808;2023-06-22T00:36:46;50.15;42.91;65.42;;
64079;Laerm;51042;49.696;10.808;2023-06-22T00:39:11;46.30;42.91;50.68;;
64079;Laerm;51042;49.696;10.808;2023-06-22T00:41:37;46.19;43.04;49.72;;
64079;Laerm;51042;49.696;10.808;2023-06-22T00:44:02;46.31;42.97;49.87;;
64079;Laerm;51042;49.696;10.808;2023-06-22T00:46:27;46.55;43.17;52.36;;
64079;Laerm;51042;49.696;10.808;2023-06-22T00:48:53;46.24;42.43;51.32;;
64079;Laerm;51042;49.696;10.808;2023-06-22T00:51:22;46.51;43.14;51.43;;
64079;Laerm;51042;49.696;10.808;2023-06-22T00:53:49;48.65;42.68;61.11;;
64079;Laerm;51042;49.696;10.808;2023-06-22T00:56:15;54.65;42.34;69.56;;
64079;Laerm;51042;49.696;10.808;2023-06-22T00:58:45;46.11;42.62;58.81;;
64079;Laerm;51042;49.696;10.808;2023-06-22T01:01:11;45.97;42.56;50.16;;
64079;Laerm;51042;49.696;10.808;2023-06-22T01:03:36;45.90;42.30;50.43;;
64079;Laerm;51042;49.696;10.808;2023-06-22T01:06:15;45.75;42.00;55.65;;
64079;Laerm;51042;49.696;10.808;2023-06-22T01:08:51;46.82;42.33;62.63;;
64079;Laerm;51042;49.696;10.808;2023-06-22T01:11:40;51.16;42.46;72.73;;
64079;Laerm;51042;49.696;10.808;2023-06-22T01:14:14;48.86;42.40;72.87;;
64079;Laerm;51042;49.696;10.808;2023-06-22T01:16:41;47.96;42.14;66.99;;
64079;Laerm;51042;49.696;10.808;2023-06-22T01:21:57;47.76;42.80;63.64;;
64079;Laerm;51042;49.696;10.808;2023-06-22T01:24:45;46.76;42.28;56.41;;
64079;Laerm;51042;49.696;10.808;2023-06-22T01:29:53;48.91;42.86;61.28;;
64079;Laerm;51042;49.696;10.808;2023-06-22T01:32:28;63.68;42.61;81.51;;
64079;Laerm;51042;49.696;10.808;2023-06-22T01:34:57;45.76;42.54;50.22;;
64079;Laerm;51042;49.696;10.808;2023-06-22T01:37:23;45.96;42.79;53.78;;
64079;Laerm;51042;49.696;10.808;2023-06-22T01:39:48;45.90;42.51;49.79;;
64079;Laerm;51042;49.696;10.808;2023-06-22T01:42:14;45.74;42.79;48.82;;
64079;Laerm;51042;49.696;10.808;2023-06-22T01:44:40;46.18;42.92;51.50;;
64079;Laerm;51042;49.696;10.808;2023-06-22T01:47:06;51.45;42.78;67.98;;
64079;Laerm;51042;49.696;10.808;2023-06-22T01:49:32;53.26;42.60;67.47;;
64079;Laerm;51042;49.696;10.808;2023-06-22T01:51:58;45.95;42.51;49.90;;
64079;Laerm;51042;49.696;10.808;2023-06-22T01:54:23;45.92;42.96;49.52;;
64079;Laerm;51042;49.696;10.808;2023-06-22T01:56:49;46.06;42.72;49.68;;
64079;Laerm;51042;49.696;10.808;2023-06-22T01:59:20;46.85;42.35;60.80;;
64079;Laerm;51042;49.696;10.808;2023-06-22T02:01:56;48.14;42.93;62.70;;
64079;Laerm;51042;49.696;10.808;2023-06-22T02:04:27;49.47;43.41;62.69;;
64079;Laerm;51042;49.696;10.808;2023-06-22T02:06:56;66.36;44.38;83.93;;
64079;Laerm;51042;49.696;10.808;2023-06-22T02:09:25;51.24;43.81;65.08;;
64079;Laerm;51042;49.696;10.808;2023-06-22T02:11:55;51.60;44.08;65.45;;
64079;Laerm;51042;49.696;10.808;2023-06-22T02:14:21;53.97;44.27;67.44;;
64079;Laerm;51042;49.696;10.808;2023-06-22T02:16:47;52.59;44.25;65.51;;
64079;Laerm;51042;49.696;10.808;2023-06-22T02:19:12;51.99;44.12;66.22;;
64079;Laerm;51042;49.696;10.808;2023-06-22T02:21:43;51.59;44.42;66.00;;
64079;Laerm;51042;49.696;10.808;2023-06-22T02:24:08;52.09;44.23;66.06;;
64079;Laerm;51042;49.696;10.808;2023-06-22T02:26:34;58.89;44.34;78.67;;
64079;Laerm;51042;49.696;10.808;2023-06-22T02:28:59;52.69;44.42;65.25;;
64079;Laerm;51042;49.696;10.808;2023-06-22T02:31:25;56.40;44.78;71.02;;
64079;Laerm;51042;49.696;10.808;2023-06-22T02:33:56;50.58;45.08;61.16;;
64079;Laerm;51042;49.696;10.808;2023-06-22T02:36:22;53.73;44.37;69.02;;
64079;Laerm;51042;49.696;10.808;2023-06-22T02:38:49;56.50;46.18;71.40;;
64079;Laerm;51042;49.696;10.808;2023-06-22T02:41:15;54.95;45.79;74.10;;
64079;Laerm;51042;49.696;10.808;2023-06-22T02:43:46;63.06;44.30;84.85;;
64079;Laerm;51042;49.696;10.808;2023-06-22T02:46:13;49.64;43.53;59.72;;
64079;Laerm;51042;49.696;10.808;2023-06-22T02:48:42;53.70;45.13;66.89;;
64079;Laerm;51042;49.696;10.808;2023-06-22T02:51:07;49.71;45.59;67.65;;
64079;Laerm;51042;49.696;10.808;2023-06-22T02:53:33;50.53;43.96;65.38;;
64079;Laerm;51042;49.696;10.808;2023-06-22T02:56:01;52.71;43.57;68.36;;
64079;Laerm;51042;49.696;10.808;2023-06-22T02:58:26;49.85;44.21;59.42;;
64079;Laerm;51042;49.696;10.808;2023-06-22T03:00:52;52.17;43.86;66.74;;
64079;Laerm;51042;49.696;10.808;2023-06-22T03:03:18;61.44;44.01;79.25;;
64079;Laerm;51042;49.696;10.808;2023-06-22T03:05:44;53.13;44.34;63.01;;
64079;Laerm;51042;49.696;10.808;2023-06-22T03:08:09;50.35;43.77;60.70;;
64079;Laerm;51042;49.696;10.808;2023-06-22T03:10:34;54.35;44.48;68.34;;
64079;Laerm;51042;49.696;10.808;2023-06-22T03:13:00;50.02;44.51;64.58;;
64079;Laerm;51042;49.696;10.808;2023-06-22T03:15:25;53.99;44.32;67.35;;
64079;Laerm;51042;49.696;10.808;2023-06-22T03:17:51;55.95;44.07;69.50;;
64079;Laerm;51042;49.696;10.808;2023-06-22T03:20:16;56.29;43.91;69.33;;
64079;Laerm;51042;49.696;10.808;2023-06-22T03:22:41;50.98;44.08;68.99;;
64079;Laerm;51042;49.696;10.808;2023-06-22T03:25:09;57.54;44.07;71.04;;
64079;Laerm;51042;49.696;10.808;2023-06-22T03:27:41;56.73;43.68;77.66;;
64079;Laerm;51042;49.696;10.808;2023-06-22T03:30:08;63.58;46.79;80.85;;
64079;Laerm;51042;49.696;10.808;2023-06-22T03:32:33;59.45;44.39;70.37;;
64079;Laerm;51042;49.696;10.808;2023-06-22T03:34:59;58.77;43.56;75.11;;
64079;Laerm;51042;49.696;10.808;2023-06-22T03:37:25;61.12;44.86;75.33;;
64079;Laerm;51042;49.696;10.808;2023-06-22T03:39:51;60.96;46.66;76.54;;
64079;Laerm;51042;49.696;10.808;2023-06-22T03:42:17;60.30;43.97;73.16;;
64079;Laerm;51042;49.696;10.808;2023-06-22T03:44:42;61.33;45.86;74.74;;
64079;Laerm;51042;49.696;10.808;2023-06-22T03:47:07;60.43;48.13;72.06;;
64079;Laerm;51042;49.696;10.808;2023-06-22T03:49:33;62.50;45.21;77.38;;
64079;Laerm;51042;49.696;10.808;2023-06-22T03:51:59;59.09;45.47;73.91;;
64079;Laerm;51042;49.696;10.808;2023-06-22T03:54:25;61.16;45.20;75.25;;
64079;Laerm;51042;49.696;10.808;2023-06-22T03:56:51;59.18;44.39;73.52;;
64079;Laerm;51042;49.696;10.808;2023-06-22T03:59:16;60.27;44.42;75.99;;
64079;Laerm;51042;49.696;10.808;2023-06-22T04:01:41;58.99;46.50;71.61;;
64079;Laerm;51042;49.696;10.808;2023-06-22T04:04:07;62.69;46.22;73.90;;
64079;Laerm;51042;49.696;10.808;2023-06-22T04:06:32;61.19;47.09;73.53;;
64079;Laerm;51042;49.696;10.808;2023-06-22T04:08:59;61.47;46.20;72.52;;
64079;Laerm;51042;49.696;10.808;2023-06-22T04:11:25;62.48;46.45;77.20;;
64079;Laerm;51042;49.696;10.808;2023-06-22T04:13:51;54.48;45.07;72.33;;
64079;Laerm;51042;49.696;10.808;2023-06-22T04:16:16;55.71;45.46;69.57;;
64079;Laerm;51042;49.696;10.808;2023-06-22T04:18:41;60.23;46.95;72.09;;
64079;Laerm;51042;49.696;10.808;2023-06-22T04:21:07;58.40;45.35;74.25;;
64079;Laerm;51042;49.696;10.808;2023-06-22T04:23:32;59.92;45.33;72.90;;
64079;Laerm;51042;49.696;10.808;2023-06-22T04:25:57;56.63;45.92;68.13;;
64079;Laerm;51042;49.696;10.808;2023-06-22T04:28:24;57.74;45.11;69.80;;
64079;Laerm;51042;49.696;10.808;2023-06-22T04:30:49;57.17;46.08;69.76;;
64079;Laerm;51042;49.696;10.808;2023-06-22T04:33:16;58.62;45.70;73.05;;
64079;Laerm;51042;49.696;10.808;2023-06-22T04:35:44;59.59;44.57;74.19;;
64079;Laerm;51042;49.696;10.808;2023-06-22T04:38:11;65.00;45.49;82.02;;
64079;Laerm;51042;49.696;10.808;2023-06-22T04:40:38;59.94;45.70;71.81;;
64079;Laerm;51042;49.696;10.808;2023-06-22T04:43:04;59.99;47.47;70.40;;
64079;Laerm;51042;49.696;10.808;2023-06-22T04:45:31;59.67;44.86;77.71;;
64079;Laerm;51042;49.696;10.808;2023-06-22T04:47:56;54.76;45.43;69.24;;
64079;Laerm;51042;49.696;10.808;2023-06-22T04:50:21;60.65;46.08;82.65;;
64079;Laerm;51042;49.696;10.808;2023-06-22T04:52:48;60.05;45.88;69.81;;
64079;Laerm;51042;49.696;10.808;2023-06-22T04:55:14;61.46;46.02;73.83;;
64079;Laerm;51042;49.696;10.808;2023-06-22T04:57:47;55.44;45.38;71.33;;
64079;Laerm;51042;49.696;10.808;2023-06-22T05:00:19;57.29;45.23;72.60;;
64079;Laerm;51042;49.696;10.808;2023-06-22T05:02:48;64.23;46.12;82.36;;
64079;Laerm;51042;49.696;10.808;2023-06-22T05:05:14;61.43;45.59;76.34;;
64079;Laerm;51042;49.696;10.808;2023-06-22T05:07:42;60.36;46.69;74.50;;
64079;Laerm;51042;49.696;10.808;2023-06-22T05:10:10;61.42;48.52;84.90;;
64079;Laerm;51042;49.696;10.808;2023-06-22T05:12:36;61.27;47.14;73.23;;
64079;Laerm;51042;49.696;10.808;2023-06-22T05:15:02;60.52;46.86;73.33;;
64079;Laerm;51042;49.696;10.808;2023-06-22T05:17:27;60.95;47.13;84.30;;
64079;Laerm;51042;49.696;10.808;2023-06-22T05:19:53;61.26;48.31;71.47;;
64079;Laerm;51042;49.696;10.808;2023-06-22T05:22:18;60.50;46.27;70.25;;
64079;Laerm;51042;49.696;10.808;2023-06-22T05:24:44;67.63;47.39;81.73;;
64079;Laerm;51042;49.696;10.808;2023-06-22T05:27:10;59.22;47.27;69.91;;
64079;Laerm;51042;49.696;10.808;2023-06-22T05:29:36;62.70;47.25;75.44;;
64079;Laerm;51042;49.696;10.808;2023-06-22T05:32:02;64.27;48.64;83.19;;
64079;Laerm;51042;49.696;10.808;2023-06-22T05:34:27;59.94;46.75;73.06;;
64079;Laerm;51042;49.696;10.808;2023-06-22T05:36:52;59.81;47.55;75.02;;
64079;Laerm;51042;49.696;10.808;2023-06-22T05:39:18;60.65;47.26;72.69;;
64079;Laerm;51042;49.696;10.808;2023-06-22T05:41:44;62.63;47.18;75.01;;
64079;Laerm;51042;49.696;10.808;2023-06-22T05:44:10;58.46;47.23;70.56;;
64079;Laerm;51042;49.696;10.808;2023-06-22T05:46:35;60.01;47.61;69.98;;
64079;Laerm;51042;49.696;10.808;2023-06-22T05:49:00;59.92;48.63;75.93;;
64079;Laerm;51042;49.696;10.808;2023-06-22T05:51:26;62.67;50.00;77.84;;
64079;Laerm;51042;49.696;10.808;2023-06-22T05:53:51;61.40;48.00;71.01;;
64079;Laerm;51042;49.696;10.808;2023-06-22T05:56:17;57.88;46.44;72.09;;
64079;Laerm;51042;49.696;10.808;2023-06-22T05:58:42;63.62;50.36;76.52;;
64079;Laerm;51042;49.696;10.808;2023-06-22T06:01:07;62.26;49.25;80.09;;
64079;Laerm;51042;49.696;10.808;2023-06-22T06:03:33;60.06;47.10;72.73;;
64079;Laerm;51042;49.696;10.808;2023-06-22T06:05:58;59.96;48.54;71.95;;
64079;Laerm;51042;49.696;10.808;2023-06-22T06:08:23;60.38;48.12;80.21;;
64079;Laerm;51042;49.696;10.808;2023-06-22T06:10:49;61.17;46.55;76.80;;
64079;Laerm;51042;49.696;10.808;2023-06-22T06:13:14;61.02;47.33;75.81;;
64079;Laerm;51042;49.696;10.808;2023-06-22T06:15:39;63.93;47.14;86.62;;
64079;Laerm;51042;49.696;10.808;2023-06-22T06:18:05;58.83;46.25;71.25;;
64079;Laerm;51042;49.696;10.808;2023-06-22T06:20:32;60.05;46.25;73.85;;
64079;Laerm;51042;49.696;10.808;2023-06-22T06:22:57;61.04;45.75;74.25;;
64079;Laerm;51042;49.696;10.808;2023-06-22T06:25:23;60.02;46.23;73.25;;
64079;Laerm;51042;49.696;10.808;2023-06-22T06:27:51;69.65;48.81;90.90;;
64079;Laerm;51042;49.696;10.808;2023-06-22T06:30:17;62.43;46.15;79.74;;
64079;Laerm;51042;49.696;10.808;2023-06-22T06:32:44;61.76;46.92;74.75;;
64079;Laerm;51042;49.696;10.808;2023-06-22T06:35:11;64.04;47.59;75.99;;
64079;Laerm;51042;49.696;10.808;2023-06-22T06:37:39;69.53;61.52;78.99;;
64079;Laerm;51042;49.696;10.808;2023-06-22T06:40:08;69.38;61.82;78.74;;
64079;Laerm;51042;49.696;10.808;2023-06-22T06:42:39;69.54;61.52;78.17;;
64079;Laerm;51042;49.696;10.808;2023-06-22T06:45:07;69.47;60.65;77.28;;
64079;Laerm;51042;49.696;10.808;2023-06-22T06:47:33;61.35;45.97;76.15;;
64079;Laerm;51042;49.696;10.808;2023-06-22T06:49:58;59.17;46.76;69.11;;
64079;Laerm;51042;49.696;10.808;2023-06-22T06:52:24;62.19;49.66;72.59;;
64079;Laerm;51042;49.696;10.808;2023-06-22T06:54:50;63.72;47.90;77.16;;
64079;Laerm;51042;49.696;10.808;2023-06-22T06:57:17;61.80;48.81;73.74;;
64079;Laerm;51042;49.696;10.808;2023-06-22T06:59:42;62.38;48.36;75.24;;
64079;Laerm;51042;49.696;10.808;2023-06-22T07:02:08;61.39;47.33;78.38;;
64079;Laerm;51042;49.696;10.808;2023-06-22T07:04:33;61.61;47.59;72.37;;
64079;Laerm;51042;49.696;10.808;2023-06-22T07:07:01;67.28;49.04;83.08;;
64079;Laerm;51042;49.696;10.808;2023-06-22T07:09:27;67.38;51.36;83.38;;
64079;Laerm;51042;49.696;10.808;2023-06-22T07:11:53;66.80;50.54;82.55;;
64079;Laerm;51042;49.696;10.808;2023-06-22T07:14:19;62.97;49.66;75.52;;
64079;Laerm;51042;49.696;10.808;2023-06-22T07:16:45;63.73;50.20;77.58;;
64079;Laerm;51042;49.696;10.808;2023-06-22T07:19:12;67.25;50.70;88.36;;
64079;Laerm;51042;49.696;10.808;2023-06-22T07:21:38;62.32;47.74;76.65;;
64079;Laerm;51042;49.696;10.808;2023-06-22T07:24:04;63.09;50.48;73.29;;
64079;Laerm;51042;49.696;10.808;2023-06-22T07:26:31;62.87;48.62;76.93;;
64079;Laerm;51042;49.696;10.808;2023-06-22T07:28:56;62.19;48.24;78.32;;
64079;Laerm;51042;49.696;10.808;2023-06-22T07:31:24;63.21;52.48;79.42;;
64079;Laerm;51042;49.696;10.808;2023-06-22T07:33:49;67.55;53.38;81.75;;
64079;Laerm;51042;49.696;10.808;2023-06-22T07:36:16;67.91;50.29;84.50;;
64079;Laerm;51042;49.696;10.808;2023-06-22T07:38:41;64.25;50.49;79.76;;
64079;Laerm;51042;49.696;10.808;2023-06-22T07:41:06;68.81;48.75;83.77;;
64079;Laerm;51042;49.696;10.808;2023-06-22T07:43:32;67.78;50.70;82.95;;
64079;Laerm;51042;49.696;10.808;2023-06-22T07:45:59;67.68;50.06;90.64;;
64079;Laerm;51042;49.696;10.808;2023-06-22T07:48:24;64.72;48.35;79.52;;
64079;Laerm;51042;49.696;10.808;2023-06-22T07:50:50;61.54;46.57;76.02;;
64079;Laerm;51042;49.696;10.808;2023-06-22T07:53:15;60.66;48.36;71.94;;
64079;Laerm;51042;49.696;10.808;2023-06-22T07:55:40;65.46;47.95;82.99;;
64079;Laerm;51042;49.696;10.808;2023-06-22T07:58:06;64.45;48.72;81.78;;
64079;Laerm;51042;49.696;10.808;2023-06-22T08:00:31;66.87;48.63;88.97;;
64079;Laerm;51042;49.696;10.808;2023-06-22T08:02:58;63.03;47.73;77.50;;
64079;Laerm;51042;49.696;10.808;2023-06-22T08:05:23;61.07;48.35;74.12;;
64079;Laerm;51042;49.696;10.808;2023-06-22T08:07:49;62.62;47.29;74.94;;
64079;Laerm;51042;49.696;10.808;2023-06-22T08:10:15;63.31;49.82;78.87;;
64079;Laerm;51042;49.696;10.808;2023-06-22T08:12:42;62.08;47.98;77.35;;
64079;Laerm;51042;49.696;10.808;2023-06-22T08:15:07;63.32;46.82;76.19;;
64079;Laerm;51042;49.696;10.808;2023-06-22T08:17:33;65.66;47.69;83.40;;
64079;Laerm;51042;49.696;10.808;2023-06-22T08:19:58;59.71;46.86;71.19;;
64079;Laerm;51042;49.696;10.808;2023-06-22T08:22:24;65.68;48.88;84.15;;
64079;Laerm;51042;49.696;10.808;2023-06-22T08:24:49;61.12;48.15;74.72;;
64079;Laerm;51042;49.696;10.808;2023-06-22T08:27:14;62.13;47.91;77.44;;
64079;Laerm;51042;49.696;10.808;2023-06-22T08:29:42;62.22;48.06;76.83;;
64079;Laerm;51042;49.696;10.808;2023-06-22T08:32:11;65.14;47.42;81.47;;
64079;Laerm;51042;49.696;10.808;2023-06-22T08:34:36;60.58;47.13;75.35;;
64079;Laerm;51042;49.696;10.808;2023-06-22T08:37:02;60.56;48.29;77.02;;
64079;Laerm;51042;49.696;10.808;2023-06-22T08:39:31;64.56;48.15;81.78;;
64079;Laerm;51042;49.696;10.808;2023-06-22T08:41:56;62.46;49.41;76.62;;
64079;Laerm;51042;49.696;10.808;2023-06-22T08:44:22;64.49;48.29;80.47;;
64079;Laerm;51042;49.696;10.808;2023-06-22T08:46:47;61.49;48.37;76.67;;
64079;Laerm;51042;49.696;10.808;2023-06-22T08:49:12;61.08;47.91;72.33;;
64079;Laerm;51042;49.696;10.808;2023-06-22T08:51:38;63.50;47.70;85.79;;
64079;Laerm;51042;49.696;10.808;2023-06-22T08:54:03;63.21;47.98;77.61;;
64079;Laerm;51042;49.696;10.808;2023-06-22T08:56:28;64.75;47.60;89.72;;
64079;Laerm;51042;49.696;10.808;2023-06-22T08:58:54;66.89;49.22;81.92;;
64079;Laerm;51042;49.696;10.808;2023-06-22T09:01:19;68.56;48.90;88.24;;
64079;Laerm;51042;49.696;10.808;2023-06-22T09:03:44;66.52;48.11;82.18;;
64079;Laerm;51042;49.696;10.808;2023-06-22T09:06:19;60.92;46.90;72.22;;
64079;Laerm;51042;49.696;10.808;2023-06-22T09:08:44;64.75;48.41;78.65;;
64079;Laerm;51042;49.696;10.808;2023-06-22T09:11:09;66.63;50.35;82.58;;
64079;Laerm;51042;49.696;10.808;2023-06-22T09:13:35;63.95;47.27;79.62;;
64079;Laerm;51042;49.696;10.808;2023-06-22T09:16:00;62.11;48.53;79.16;;
64079;Laerm;51042;49.696;10.808;2023-06-22T09:18:25;60.09;47.36;75.47;;
64079;Laerm;51042;49.696;10.808;2023-06-22T09:20:50;60.48;48.06;73.93;;
64079;Laerm;51042;49.696;10.808;2023-06-22T09:23:16;67.50;49.80;84.72;;
64079;Laerm;51042;49.696;10.808;2023-06-22T09:25:41;66.04;50.78;80.89;;
64079;Laerm;51042;49.696;10.808;2023-06-22T09:28:07;62.91;46.65;76.83;;
64079;Laerm;51042;49.696;10.808;2023-06-22T09:30:32;61.64;47.17;83.96;;
64079;Laerm;51042;49.696;10.808;2023-06-22T09:32:57;62.72;49.14;73.65;;
64079;Laerm;51042;49.696;10.808;2023-06-22T09:35:22;61.95;47.30;78.44;;
64079;Laerm;51042;49.696;10.808;2023-06-22T09:37:48;65.58;46.88;80.66;;
64079;Laerm;51042;49.696;10.808;2023-06-22T09:40:13;62.55;48.14;74.75;;
64079;Laerm;51042;49.696;10.808;2023-06-22T09:42:41;61.34;47.72;74.81;;
64079;Laerm;51042;49.696;10.808;2023-06-22T09:45:07;60.89;47.43;71.69;;
64079;Laerm;51042;49.696;10.808;2023-06-22T09:47:32;59.95;47.24;78.22;;
64079;Laerm;51042;49.696;10.808;2023-06-22T09:49:58;63.00;49.75;79.95;;
64079;Laerm;51042;49.696;10.808;2023-06-22T09:52:25;62.47;46.78;74.81;;
64079;Laerm;51042;49.696;10.808;2023-06-22T09:54:50;61.41;46.66;77.99;;
64079;Laerm;51042;49.696;10.808;2023-06-22T09:57:15;63.44;47.27;77.56;;
64079;Laerm;51042;49.696;10.808;2023-06-22T09:59:41;63.42;48.65;81.18;;
64079;Laerm;51042;49.696;10.808;2023-06-22T10:02:06;64.47;51.35;77.71;;
64079;Laerm;51042;49.696;10.808;2023-06-22T10:04:32;60.18;46.79;75.16;;
64079;Laerm;51042;49.696;10.808;2023-06-22T10:06:58;61.19;46.66;72.24;;
64079;Laerm;51042;49.696;10.808;2023-06-22T10:09:23;62.73;47.04;75.10;;
64079;Laerm;51042;49.696;10.808;2023-06-22T10:11:48;62.44;48.26;76.81;;
64079;Laerm;51042;49.696;10.808;2023-06-22T10:14:13;66.01;46.78;79.58;;
64079;Laerm;51042;49.696;10.808;2023-06-22T10:16:39;61.31;45.13;74.63;;
64079;Laerm;51042;49.696;10.808;2023-06-22T10:19:06;60.91;47.33;74.85;;
64079;Laerm;51042;49.696;10.808;2023-06-22T10:21:31;59.47;46.80;71.33;;
64079;Laerm;51042;49.696;10.808;2023-06-22T10:23:57;61.75;50.06;78.11;;
64079;Laerm;51042;49.696;10.808;2023-06-22T10:26:24;62.88;51.19;74.42;;
64079;Laerm;51042;49.696;10.808;2023-06-22T10:28:50;61.43;46.12;73.07;;
64079;Laerm;51042;49.696;10.808;2023-06-22T10:31:15;59.11;46.45;76.94;;
64079;Laerm;51042;49.696;10.808;2023-06-22T10:33:42;59.97;47.25;74.56;;
64079;Laerm;51042;49.696;10.808;2023-06-22T10:36:10;61.01;46.91;72.62;;
64079;Laerm;51042;49.696;10.808;2023-06-22T10:38:35;60.93;48.38;73.48;;
64079;Laerm;51042;49.696;10.808;2023-06-22T10:41:01;59.10;46.48;76.01;;
64079;Laerm;51042;49.696;10.808;2023-06-22T10:43:26;60.84;47.61;70.58;;
64079;Laerm;51042;49.696;10.808;2023-06-22T10:45:51;62.93;47.04;85.67;;
64079;Laerm;51042;49.696;10.808;2023-06-22T10:48:17;61.92;47.65;81.31;;
64079;Laerm;51042;49.696;10.808;2023-06-22T10:50:42;62.08;47.97;77.33;;
64079;Laerm;51042;49.696;10.808;2023-06-22T10:53:07;61.49;47.01;71.77;;
64079;Laerm;51042;49.696;10.808;2023-06-22T10:55:32;63.98;47.52;84.46;;
64079;Laerm;51042;49.696;10.808;2023-06-22T10:57:58;65.50;47.45;85.43;;
64079;Laerm;51042;49.696;10.808;2023-06-22T11:00:23;63.22;47.76;79.03;;
64079;Laerm;51042;49.696;10.808;2023-06-22T11:02:48;63.85;47.57;85.12;;
64079;Laerm;51042;49.696;10.808;2023-06-22T11:05:14;62.24;47.48;77.23;;
64079;Laerm;51042;49.696;10.808;2023-06-22T11:07:43;62.64;50.84;82.37;;
64079;Laerm;51042;49.696;10.808;2023-06-22T11:10:09;64.92;48.20;80.19;;
64079;Laerm;51042;49.696;10.808;2023-06-22T11:12:34;58.32;46.88;70.50;;
64079;Laerm;51042;49.696;10.808;2023-06-22T11:15:01;61.37;48.39;76.36;;
64079;Laerm;51042;49.696;10.808;2023-06-22T11:17:26;64.25;49.33;81.93;;
64079;Laerm;51042;49.696;10.808;2023-06-22T11:19:51;85.55;50.69;107.78;;
64079;Laerm;51042;49.696;10.808;2023-06-22T11:22:16;61.17;48.34;75.72;;
64079;Laerm;51042;49.696;10.808;2023-06-22T11:24:42;63.27;48.33;77.54;;
64079;Laerm;51042;49.696;10.808;2023-06-22T11:27:07;66.19;49.29;83.68;;
64079;Laerm;51042;49.696;10.808;2023-06-22T11:29:33;66.20;48.10;82.55;;
64079;Laerm;51042;49.696;10.808;2023-06-22T11:31:58;64.13;47.78;80.15;;
64079;Laerm;51042;49.696;10.808;2023-06-22T11:34:23;58.65;45.78;71.43;;
64079;Laerm;51042;49.696;10.808;2023-06-22T11:36:49;59.84;46.46;72.36;;
64079;Laerm;51042;49.696;10.808;2023-06-22T11:39:15;65.12;49.74;80.02;;
64079;Laerm;51042;49.696;10.808;2023-06-22T11:41:40;67.94;47.35;87.77;;
64079;Laerm;51042;49.696;10.808;2023-06-22T11:44:06;66.53;49.23;82.84;;
64079;Laerm;51042;49.696;10.808;2023-06-22T11:46:32;65.21;49.23;81.12;;
64079;Laerm;51042;49.696;10.808;2023-06-22T11:48:57;64.43;48.40;82.45;;
64079;Laerm;51042;49.696;10.808;2023-06-22T11:51:23;60.98;46.42;73.49;;
64079;Laerm;51042;49.696;10.808;2023-06-22T11:53:48;62.63;45.54;85.37;;
64079;Laerm;51042;49.696;10.808;2023-06-22T11:56:13;62.79;46.95;73.58;;
64079;Laerm;51042;49.696;10.808;2023-06-22T11:58:39;64.39;47.71;82.22;;
64079;Laerm;51042;49.696;10.808;2023-06-22T12:01:04;63.48;48.00;77.46;;
64079;Laerm;51042;49.696;10.808;2023-06-22T12:03:30;63.24;46.46;81.36;;
64079;Laerm;51042;49.696;10.808;2023-06-22T12:05:55;61.86;47.08;70.48;;
64079;Laerm;51042;49.696;10.808;2023-06-22T12:08:21;61.89;45.55;81.37;;
64079;Laerm;51042;49.696;10.808;2023-06-22T12:10:46;61.22;46.10;74.56;;
64079;Laerm;51042;49.696;10.808;2023-06-22T12:13:12;63.80;48.14;79.43;;
64079;Laerm;51042;49.696;10.808;2023-06-22T12:15:37;63.79;50.25;80.51;;
64079;Laerm;51042;49.696;10.808;2023-06-22T12:18:03;62.38;47.54;76.27;;
64079;Laerm;51042;49.696;10.808;2023-06-22T12:20:28;66.65;49.74;81.85;;
64079;Laerm;51042;49.696;10.808;2023-06-22T12:22:54;62.05;46.74;72.69;;
64079;Laerm;51042;49.696;10.808;2023-06-22T12:25:21;66.15;48.22;82.31;;
64079;Laerm;51042;49.696;10.808;2023-06-22T12:27:47;58.76;46.21;68.42;;
64079;Laerm;51042;49.696;10.808;2023-06-22T12:30:12;64.26;45.97;80.76;;
64079;Laerm;51042;49.696;10.808;2023-06-22T12:32:37;63.70;48.49;79.13;;
64079;Laerm;51042;49.696;10.808;2023-06-22T12:35:03;64.68;49.55;74.93;;
64079;Laerm;51042;49.696;10.808;2023-06-22T12:37:29;63.96;48.28;78.22;;
64079;Laerm;51042;49.696;10.808;2023-06-22T12:39:56;62.89;46.31;75.33;;
64079;Laerm;51042;49.696;10.808;2023-06-22T12:42:22;67.68;45.58;83.20;;
64079;Laerm;51042;49.696;10.808;2023-06-22T12:44:47;60.85;46.55;71.55;;
64079;Laerm;51042;49.696;10.808;2023-06-22T12:47:12;61.97;47.17;73.59;;
64079;Laerm;51042;49.696;10.808;2023-06-22T12:49:38;58.99;47.17;68.31;;
64079;Laerm;51042;49.696;10.808;2023-06-22T12:52:08;63.87;50.35;75.05;;
64079;Laerm;51042;49.696;10.808;2023-06-22T12:54:34;62.72;45.97;85.39;;
64079;Laerm;51042;49.696;10.808;2023-06-22T12:56:59;67.34;46.76;88.78;;
64079;Laerm;51042;49.696;10.808;2023-06-22T12:59:25;60.90;46.64;72.37;;
64079;Laerm;51042;49.696;10.808;2023-06-22T13:01:50;59.82;45.23;71.70;;
64079;Laerm;51042;49.696;10.808;2023-06-22T13:04:15;62.78;49.53;75.54;;
64079;Laerm;51042;49.696;10.808;2023-06-22T13:06:45;62.48;45.77;76.13;;
64079;Laerm;51042;49.696;10.808;2023-06-22T13:09:13;62.90;47.42;77.88;;
64079;Laerm;51042;49.696;10.808;2023-06-22T13:11:39;63.64;47.73;83.01;;
64079;Laerm;51042;49.696;10.808;2023-06-22T13:14:05;60.02;48.59;71.71;;
64079;Laerm;51042;49.696;10.808;2023-06-22T13:16:30;63.18;46.34;81.21;;
64079;Laerm;51042;49.696;10.808;2023-06-22T13:18:55;61.15;46.83;77.79;;
64079;Laerm;51042;49.696;10.808;2023-06-22T13:21:20;61.28;46.48;70.50;;
64079;Laerm;51042;49.696;10.808;2023-06-22T13:23:46;64.30;46.24;82.14;;
64079;Laerm;51042;49.696;10.808;2023-06-22T13:26:11;65.01;48.46;83.48;;
64079;Laerm;51042;49.696;10.808;2023-06-22T13:28:36;62.01;46.57;74.50;;
64079;Laerm;51042;49.696;10.808;2023-06-22T13:31:02;59.15;45.49;72.03;;